sensor_id;sensor_type;location;lat;lon;timestamp;pressure;altitude;pressure_sealevel;temperature;humidity
15308;BME280;7755;52.208;6.964;2023-02-02T00:00:19;101514.50;;;6.27;100.00
15308;BME280;7755;52.208;6.964;2023-02-02T00:04:26;101521.50;;;6.22;100.00
15308;BME280;7755;52.208;6.964;2023-02-02T00:08:29;101517.34;;;6.19;100.00
15308;BME280;7755;52.208;6.964;2023-02-02T00:12:32;101525.25;;;6.21;100.00
15308;BME280;7755;52.208;6.964;2023-02-02T00:16:38;101520.69;;;6.21;100.00
15308;BME280;7755;52.208;6.964;2023-02-02T00:20:42;101524.22;;;6.22;100.00
15308;BME280;7755;52.208;6.964;2023-02-02T00:24:48;101520.88;;;6.20;100.00
15308;BME280;7755;52.208;6.964;2023-02-02T00:28:51;101524.81;;;6.17;100.00
15308;BME280;7755;52.208;6.964;2023-02-02T00:32:56;101523.97;;;6.17;100.00
15308;BME280;7755;52.208;6.964;2023-02-02T00:36:59;101532.25;;;6.15;100.00
15308;BME280;7755;52.208;6.964;2023-02-02T00:41:02;101529.94;;;6.12;100.00
15308;BME280;7755;52.208;6.964;2023-02-02T00:45:06;101523.22;;;6.08;100.00
15308;BME280;7755;52.208;6.964;2023-02-02T00:49:20;101531.34;;;6.08;100.00
15308;BME280;7755;52.208;6.964;2023-02-02T00:53:24;101525.28;;;6.06;100.00
15308;BME280;7755;52.208;6.964;2023-02-02T00:57:27;101523.63;;;6.05;100.00
15308;BME280;7755;52.208;6.964;2023-02-02T01:01:30;101531.25;;;6.01;100.00
15308;BME280;7755;52.208;6.964;2023-02-02T01:05:34;101518.78;;;6.00;100.00
15308;BME280;7755;52.208;6.964;2023-02-02T01:09:36;101525.63;;;5.96;100.00
15308;BME280;7755;52.208;6.964;2023-02-02T01:13:39;101520.38;;;5.95;100.00
15308;BME280;7755;52.208;6.964;2023-02-02T01:17:42;101537.13;;;5.90;100.00
15308;BME280;7755;52.208;6.964;2023-02-02T01:21:48;101531.91;;;5.89;100.00
15308;BME280;7755;52.208;6.964;2023-02-02T01:25:54;101536.66;;;5.87;100.00
15308;BME280;7755;52.208;6.964;2023-02-02T01:29:57;101538.16;;;5.89;100.00
15308;BME280;7755;52.208;6.964;2023-02-02T01:34:01;101541.88;;;5.88;100.00
15308;BME280;7755;52.208;6.964;2023-02-02T01:38:06;101540.31;;;5.94;100.00
15308;BME280;7755;52.208;6.964;2023-02-02T01:42:11;101539.28;;;5.95;100.00
15308;BME280;7755;52.208;6.964;2023-02-02T01:46:15;101542.44;;;5.98;100.00
15308;BME280;7755;52.208;6.964;2023-02-02T01:50:22;101546.63;;;6.01;100.00
15308;BME280;7755;52.208;6.964;2023-02-02T01:54:33;101545.66;;;6.09;100.00
15308;BME280;7755;52.208;6.964;2023-02-02T01:58:38;101550.09;;;6.16;100.00
15308;BME280;7755;52.208;6.964;2023-02-02T02:02:45;101553.28;;;6.20;100.00
15308;BME280;7755;52.208;6.964;2023-02-02T02:06:53;101539.22;;;6.24;100.00
15308;BME280;7755;52.208;6.964;2023-02-02T02:10:58;101557.34;;;6.31;100.00
15308;BME280;7755;52.208;6.964;2023-02-02T02:15:01;101552.84;;;6.38;100.00
15308;BME280;7755;52.208;6.964;2023-02-02T02:19:39;101564.09;;;6.41;100.00
15308;BME280;7755;52.208;6.964;2023-02-02T02:24:34;101563.53;;;6.46;100.00
15308;BME280;7755;52.208;6.964;2023-02-02T02:33:43;101562.56;;;6.53;100.00
15308;BME280;7755;52.208;6.964;2023-02-02T02:37:52;101558.25;;;6.59;100.00
15308;BME280;7755;52.208;6.964;2023-02-02T02:41:59;101546.22;;;6.62;100.00
15308;BME280;7755;52.208;6.964;2023-02-02T02:46:07;101549.56;;;6.64;100.00
15308;BME280;7755;52.208;6.964;2023-02-02T02:50:12;101549.38;;;6.65;100.00
15308;BME280;7755;52.208;6.964;2023-02-02T02:54:17;101544.41;;;6.69;100.00
15308;BME280;7755;52.208;6.964;2023-02-02T02:58:24;101557.09;;;6.68;100.00
15308;BME280;7755;52.208;6.964;2023-02-02T03:02:35;101552.13;;;6.72;100.00
15308;BME280;7755;52.208;6.964;2023-02-02T03:06:48;101539.66;;;6.71;100.00
15308;BME280;7755;52.208;6.964;2023-02-02T03:10:54;101541.97;;;6.74;100.00
15308;BME280;7755;52.208;6.964;2023-02-02T03:15:04;101543.44;;;6.76;100.00
15308;BME280;7755;52.208;6.964;2023-02-02T03:19:07;101543.91;;;6.80;100.00
15308;BME280;7755;52.208;6.964;2023-02-02T03:23:12;101550.34;;;6.79;100.00
15308;BME280;7755;52.208;6.964;2023-02-02T03:27:15;101543.47;;;6.83;100.00
15308;BME280;7755;52.208;6.964;2023-02-02T03:31:18;101549.72;;;6.83;100.00
15308;BME280;7755;52.208;6.964;2023-02-02T03:35:21;101553.09;;;6.86;100.00
15308;BME280;7755;52.208;6.964;2023-02-02T03:39:26;101552.44;;;6.83;100.00
15308;BME280;7755;52.208;6.964;2023-02-02T03:43:28;101556.84;;;6.84;100.00
15308;BME280;7755;52.208;6.964;2023-02-02T03:47:31;101557.22;;;6.81;100.00
15308;BME280;7755;52.208;6.964;2023-02-02T03:51:34;101568.22;;;6.80;100.00
15308;BME280;7755;52.208;6.964;2023-02-02T03:55:38;101571.69;;;6.74;100.00
15308;BME280;7755;52.208;6.964;2023-02-02T03:59:42;101558.38;;;6.72;100.00
15308;BME280;7755;52.208;6.964;2023-02-02T04:03:44;101558.94;;;6.68;100.00
15308;BME280;7755;52.208;6.964;2023-02-02T04:07:47;101551.31;;;6.71;100.00
15308;BME280;7755;52.208;6.964;2023-02-02T04:11:52;101543.56;;;6.68;100.00
15308;BME280;7755;52.208;6.964;2023-02-02T04:15:58;101541.28;;;6.65;100.00
15308;BME280;7755;52.208;6.964;2023-02-02T04:20:01;101547.06;;;6.62;100.00
15308;BME280;7755;52.208;6.964;2023-02-02T04:24:05;101546.41;;;6.60;100.00
15308;BME280;7755;52.208;6.964;2023-02-02T04:28:09;101542.09;;;6.66;100.00
15308;BME280;7755;52.208;6.964;2023-02-02T04:32:13;101541.91;;;6.67;100.00
15308;BME280;7755;52.208;6.964;2023-02-02T04:36:16;101540.88;;;6.68;100.00
15308;BME280;7755;52.208;6.964;2023-02-02T04:40:19;101551.06;;;6.66;100.00
15308;BME280;7755;52.208;6.964;2023-02-02T04:44:23;101555.41;;;6.67;100.00
15308;BME280;7755;52.208;6.964;2023-02-02T04:48:26;101563.72;;;6.66;100.00
15308;BME280;7755;52.208;6.964;2023-02-02T04:52:29;101555.41;;;6.67;100.00
15308;BME280;7755;52.208;6.964;2023-02-02T04:56:31;101545.44;;;6.68;100.00
15308;BME280;7755;52.208;6.964;2023-02-02T05:00:36;101552.72;;;6.67;100.00
15308;BME280;7755;52.208;6.964;2023-02-02T05:04:38;101550.84;;;6.68;100.00
15308;BME280;7755;52.208;6.964;2023-02-02T05:08:42;101557.72;;;6.70;100.00
15308;BME280;7755;52.208;6.964;2023-02-02T05:12:45;101560.41;;;6.70;100.00
15308;BME280;7755;52.208;6.964;2023-02-02T05:16:49;101563.78;;;6.72;100.00
15308;BME280;7755;52.208;6.964;2023-02-02T05:20:54;101544.25;;;6.77;100.00
15308;BME280;7755;52.208;6.964;2023-02-02T05:24:57;101552.00;;;6.80;100.00
15308;BME280;7755;52.208;6.964;2023-02-02T05:28:59;101559.28;;;6.79;100.00
15308;BME280;7755;52.208;6.964;2023-02-02T05:33:04;101560.75;;;6.82;100.00
15308;BME280;7755;52.208;6.964;2023-02-02T05:37:07;101564.28;;;6.82;100.00
15308;BME280;7755;52.208;6.964;2023-02-02T05:41:10;101560.75;;;6.82;100.00
15308;BME280;7755;52.208;6.964;2023-02-02T05:45:23;101568.47;;;6.85;100.00
15308;BME280;7755;52.208;6.964;2023-02-02T05:49:28;101563.69;;;6.87;100.00
15308;BME280;7755;52.208;6.964;2023-02-02T05:53:33;101563.50;;;6.89;100.00
15308;BME280;7755;52.208;6.964;2023-02-02T05:57:35;101574.56;;;6.94;100.00
15308;BME280;7755;52.208;6.964;2023-02-02T06:01:38;101564.84;;;6.99;100.00
15308;BME280;7755;52.208;6.964;2023-02-02T06:05:43;101565.06;;;6.98;100.00
15308;BME280;7755;52.208;6.964;2023-02-02T06:09:45;101563.81;;;7.00;100.00
15308;BME280;7755;52.208;6.964;2023-02-02T06:13:49;101564.06;;;7.05;100.00
15308;BME280;7755;52.208;6.964;2023-02-02T06:17:52;101570.09;;;7.07;100.00
15308;BME280;7755;52.208;6.964;2023-02-02T06:21:56;101567.81;;;7.11;100.00
15308;BME280;7755;52.208;6.964;2023-02-02T06:25:59;101569.75;;;7.17;100.00
15308;BME280;7755;52.208;6.964;2023-02-02T06:30:04;101564.81;;;7.21;100.00
15308;BME280;7755;52.208;6.964;2023-02-02T06:34:09;101570.63;;;7.24;100.00
15308;BME280;7755;52.208;6.964;2023-02-02T06:38:15;101567.34;;;7.29;100.00
15308;BME280;7755;52.208;6.964;2023-02-02T06:42:19;101583.00;;;7.33;100.00
15308;BME280;7755;52.208;6.964;2023-02-02T06:46:22;101586.72;;;7.32;100.00
15308;BME280;7755;52.208;6.964;2023-02-02T06:50:26;101589.22;;;7.34;100.00
15308;BME280;7755;52.208;6.964;2023-02-02T06:54:31;101600.06;;;7.34;100.00
15308;BME280;7755;52.208;6.964;2023-02-02T06:58:34;101604.88;;;7.38;100.00
15308;BME280;7755;52.208;6.964;2023-02-02T07:02:36;101602.81;;;7.41;100.00
15308;BME280;7755;52.208;6.964;2023-02-02T07:06:40;101605.09;;;7.44;100.00
15308;BME280;7755;52.208;6.964;2023-02-02T07:10:44;101620.31;;;7.45;100.00
15308;BME280;7755;52.208;6.964;2023-02-02T07:15:08;101619.63;;;7.36;100.00
15308;BME280;7755;52.208;6.964;2023-02-02T07:19:10;101617.97;;;7.35;100.00
15308;BME280;7755;52.208;6.964;2023-02-02T07:23:13;101636.44;;;7.31;100.00
15308;BME280;7755;52.208;6.964;2023-02-02T07:27:17;101627.06;;;7.27;100.00
15308;BME280;7755;52.208;6.964;2023-02-02T07:31:22;101632.47;;;7.27;100.00
15308;BME280;7755;52.208;6.964;2023-02-02T07:35:25;101635.16;;;7.27;100.00
15308;BME280;7755;52.208;6.964;2023-02-02T07:39:27;101650.38;;;7.28;100.00
15308;BME280;7755;52.208;6.964;2023-02-02T07:43:32;101645.59;;;7.30;100.00
15308;BME280;7755;52.208;6.964;2023-02-02T07:47:34;101651.13;;;7.22;100.00
15308;BME280;7755;52.208;6.964;2023-02-02T07:51:37;101654.63;;;7.16;100.00
15308;BME280;7755;52.208;6.964;2023-02-02T07:55:44;101657.25;;;7.09;100.00
15308;BME280;7755;52.208;6.964;2023-02-02T07:59:48;101655.66;;;7.15;100.00
15308;BME280;7755;52.208;6.964;2023-02-02T08:03:54;101671.88;;;7.15;100.00
15308;BME280;7755;52.208;6.964;2023-02-02T08:07:57;101672.28;;;7.12;100.00
15308;BME280;7755;52.208;6.964;2023-02-02T08:12:00;101678.91;;;7.09;100.00
15308;BME280;7755;52.208;6.964;2023-02-02T08:16:05;101672.59;;;7.02;100.00
15308;BME280;7755;52.208;6.964;2023-02-02T08:20:09;101687.09;;;6.95;100.00
15308;BME280;7755;52.208;6.964;2023-02-02T08:24:13;101688.75;;;6.96;100.00
15308;BME280;7755;52.208;6.964;2023-02-02T08:28:16;101703.69;;;6.92;100.00
15308;BME280;7755;52.208;6.964;2023-02-02T08:32:20;101685.53;;;6.86;100.00
15308;BME280;7755;52.208;6.964;2023-02-02T08:36:24;101698.31;;;6.77;100.00
15308;BME280;7755;52.208;6.964;2023-02-02T08:40:28;101695.59;;;6.77;100.00
15308;BME280;7755;52.208;6.964;2023-02-02T08:44:31;101712.50;;;6.79;100.00
15308;BME280;7755;52.208;6.964;2023-02-02T08:48:56;101718.09;;;6.77;100.00
15308;BME280;7755;52.208;6.964;2023-02-02T08:52:58;101720.13;;;6.75;100.00
15308;BME280;7755;52.208;6.964;2023-02-02T08:57:02;101732.44;;;6.78;100.00
15308;BME280;7755;52.208;6.964;2023-02-02T09:01:06;101736.34;;;6.75;100.00
15308;BME280;7755;52.208;6.964;2023-02-02T09:05:12;101736.19;;;6.62;100.00
15308;BME280;7755;52.208;6.964;2023-02-02T09:09:15;101738.69;;;6.64;100.00
15308;BME280;7755;52.208;6.964;2023-02-02T09:13:18;101749.34;;;6.65;100.00
15308;BME280;7755;52.208;6.964;2023-02-02T09:17:23;101746.88;;;6.70;100.00
15308;BME280;7755;52.208;6.964;2023-02-02T09:21:28;101755.19;;;6.69;100.00
15308;BME280;7755;52.208;6.964;2023-02-02T09:25:30;101762.72;;;6.73;100.00
15308;BME280;7755;52.208;6.964;2023-02-02T09:29:33;101762.34;;;6.76;100.00
15308;BME280;7755;52.208;6.964;2023-02-02T09:33:36;101773.00;;;6.78;100.00
15308;BME280;7755;52.208;6.964;2023-02-02T09:37:40;101772.16;;;6.77;100.00
15308;BME280;7755;52.208;6.964;2023-02-02T09:46:20;101781.66;;;6.73;100.00
15308;BME280;7755;52.208;6.964;2023-02-02T09:50:35;101787.69;;;6.75;100.00
15308;BME280;7755;52.208;6.964;2023-02-02T09:54:43;101795.44;;;6.78;100.00
15308;BME280;7755;52.208;6.964;2023-02-02T09:58:50;101797.75;;;6.81;100.00
15308;BME280;7755;52.208;6.964;2023-02-02T10:02:58;101816.88;;;6.80;100.00
15308;BME280;7755;52.208;6.964;2023-02-02T10:07:06;101812.31;;;6.80;100.00
15308;BME280;7755;52.208;6.964;2023-02-02T10:11:28;101812.69;;;6.77;100.00
15308;BME280;7755;52.208;6.964;2023-02-02T10:15:36;101816.69;;;6.81;100.00
15308;BME280;7755;52.208;6.964;2023-02-02T10:19:41;101818.34;;;6.82;100.00
15308;BME280;7755;52.208;6.964;2023-02-02T10:23:44;101823.13;;;6.80;100.00
15308;BME280;7755;52.208;6.964;2023-02-02T10:27:56;101830.66;;;6.85;100.00
15308;BME280;7755;52.208;6.964;2023-02-02T10:32:10;101838.03;;;6.91;100.00
15308;BME280;7755;52.208;6.964;2023-02-02T10:36:23;101840.63;;;6.99;100.00
15308;BME280;7755;52.208;6.964;2023-02-02T10:40:40;101860.91;;;7.10;100.00
15308;BME280;7755;52.208;6.964;2023-02-02T10:44:48;101845.72;;;7.09;100.00
15308;BME280;7755;52.208;6.964;2023-02-02T10:49:13;101841.97;;;7.10;100.00
15308;BME280;7755;52.208;6.964;2023-02-02T10:53:16;101852.16;;;7.08;100.00
15308;BME280;7755;52.208;6.964;2023-02-02T10:57:29;101848.41;;;7.09;100.00
15308;BME280;7755;52.208;6.964;2023-02-02T11:01:35;101848.06;;;7.12;100.00
15308;BME280;7755;52.208;6.964;2023-02-02T11:05:38;101855.41;;;7.18;100.00
15308;BME280;7755;52.208;6.964;2023-02-02T11:09:58;101848.47;;;7.30;100.00
15308;BME280;7755;52.208;6.964;2023-02-02T11:14:10;101844.22;;;7.43;100.00
15308;BME280;7755;52.208;6.964;2023-02-02T11:18:27;101846.03;;;7.57;100.00
15308;BME280;7755;52.208;6.964;2023-02-02T11:22:33;101837.41;;;7.68;100.00
15308;BME280;7755;52.208;6.964;2023-02-02T11:26:42;101838.31;;;7.75;100.00
15308;BME280;7755;52.208;6.964;2023-02-02T11:30:48;101845.47;;;7.83;100.00
15308;BME280;7755;52.208;6.964;2023-02-02T11:35:20;101844.63;;;7.82;100.00
15308;BME280;7755;52.208;6.964;2023-02-02T11:39:23;101837.41;;;7.89;100.00
15308;BME280;7755;52.208;6.964;2023-02-02T11:43:28;101846.63;;;7.95;100.00
15308;BME280;7755;52.208;6.964;2023-02-02T11:47:32;101848.09;;;7.98;100.00
15308;BME280;7755;52.208;6.964;2023-02-02T11:51:37;101845.19;;;7.99;100.00
15308;BME280;7755;52.208;6.964;2023-02-02T11:55:42;101838.56;;;8.02;100.00
15308;BME280;7755;52.208;6.964;2023-02-02T11:59:46;101843.56;;;8.05;100.00
15308;BME280;7755;52.208;6.964;2023-02-02T12:03:49;101836.47;;;8.04;100.00
15308;BME280;7755;52.208;6.964;2023-02-02T12:07:53;101859.81;;;8.05;100.00
15308;BME280;7755;52.208;6.964;2023-02-02T12:12:00;101858.97;;;8.04;100.00
15308;BME280;7755;52.208;6.964;2023-02-02T12:16:16;101859.19;;;8.03;100.00
15308;BME280;7755;52.208;6.964;2023-02-02T12:20:33;101860.22;;;8.02;100.00
15308;BME280;7755;52.208;6.964;2023-02-02T12:24:45;101850.22;;;8.02;100.00
15308;BME280;7755;52.208;6.964;2023-02-02T12:29:12;101851.91;;;8.03;100.00
15308;BME280;7755;52.208;6.964;2023-02-02T12:33:22;101847.78;;;8.07;100.00
15308;BME280;7755;52.208;6.964;2023-02-02T12:37:43;101846.34;;;8.11;100.00
15308;BME280;7755;52.208;6.964;2023-02-02T12:46:51;101839.25;;;8.10;100.00
15308;BME280;7755;52.208;6.964;2023-02-02T12:51:09;101845.69;;;8.09;100.00
15308;BME280;7755;52.208;6.964;2023-02-02T12:55:22;101833.63;;;8.12;100.00
15308;BME280;7755;52.208;6.964;2023-02-02T12:59:46;101839.03;;;8.12;100.00
15308;BME280;7755;52.208;6.964;2023-02-02T13:04:04;101838.03;;;8.13;100.00
15308;BME280;7755;52.208;6.964;2023-02-02T13:08:11;101842.00;;;8.17;100.00
15308;BME280;7755;52.208;6.964;2023-02-02T13:12:19;101840.34;;;8.16;100.00
15308;BME280;7755;52.208;6.964;2023-02-02T13:16:26;101847.41;;;8.17;100.00
15308;BME280;7755;52.208;6.964;2023-02-02T13:20:35;101845.75;;;8.16;100.00
15308;BME280;7755;52.208;6.964;2023-02-02T13:24:41;101848.50;;;8.23;100.00
15308;BME280;7755;52.208;6.964;2023-02-02T13:28:50;101849.09;;;8.18;100.00
15308;BME280;7755;52.208;6.964;2023-02-02T13:32:59;101860.38;;;8.21;100.00
15308;BME280;7755;52.208;6.964;2023-02-02T13:37:07;101851.22;;;8.23;100.00
15308;BME280;7755;52.208;6.964;2023-02-02T13:41:17;101844.72;;;8.17;100.00
15308;BME280;7755;52.208;6.964;2023-02-02T13:45:38;101855.53;;;8.17;100.00
15308;BME280;7755;52.208;6.964;2023-02-02T13:49:48;101856.59;;;8.16;100.00
15308;BME280;7755;52.208;6.964;2023-02-02T13:54:18;101859.50;;;8.14;100.00
15308;BME280;7755;52.208;6.964;2023-02-02T13:58:53;101860.75;;;8.18;100.00
15308;BME280;7755;52.208;6.964;2023-02-02T14:03:01;101859.69;;;8.13;100.00
15308;BME280;7755;52.208;6.964;2023-02-02T14:07:08;101867.16;;;8.11;100.00
15308;BME280;7755;52.208;6.964;2023-02-02T14:11:17;101876.13;;;8.11;100.00
15308;BME280;7755;52.208;6.964;2023-02-02T14:15:36;101880.50;;;8.12;100.00
15308;BME280;7755;52.208;6.964;2023-02-02T14:19:53;101870.53;;;8.13;100.00
15308;BME280;7755;52.208;6.964;2023-02-02T14:23:58;101870.72;;;8.11;100.00
15308;BME280;7755;52.208;6.964;2023-02-02T14:28:08;101875.28;;;8.11;100.00
15308;BME280;7755;52.208;6.964;2023-02-02T14:32:30;101874.25;;;8.12;100.00
15308;BME280;7755;52.208;6.964;2023-02-02T14:36:36;101871.81;;;8.17;100.00
15308;BME280;7755;52.208;6.964;2023-02-02T14:40:47;101876.38;;;8.16;100.00
15308;BME280;7755;52.208;6.964;2023-02-02T14:45:14;101877.63;;;8.14;100.00
15308;BME280;7755;52.208;6.964;2023-02-02T14:49:20;101880.97;;;8.16;100.00
15308;BME280;7755;52.208;6.964;2023-02-02T14:53:28;101885.91;;;8.12;100.00
15308;BME280;7755;52.208;6.964;2023-02-02T14:57:33;101877.78;;;8.12;100.00
15308;BME280;7755;52.208;6.964;2023-02-02T15:01:37;101880.72;;;8.11;100.00
15308;BME280;7755;52.208;6.964;2023-02-02T15:05:43;101880.06;;;8.09;100.00
15308;BME280;7755;52.208;6.964;2023-02-02T15:09:47;101883.03;;;8.14;100.00
15308;BME280;7755;52.208;6.964;2023-02-02T15:14:03;101898.47;;;8.13;100.00
15308;BME280;7755;52.208;6.964;2023-02-02T15:18:12;101905.09;;;8.11;100.00
15308;BME280;7755;52.208;6.964;2023-02-02T15:22:24;101911.09;;;8.06;100.00
15308;BME280;7755;52.208;6.964;2023-02-02T15:26:33;101909.41;;;8.05;100.00
15308;BME280;7755;52.208;6.964;2023-02-02T15:30:41;101917.53;;;8.05;100.00
15308;BME280;7755;52.208;6.964;2023-02-02T15:34:48;101913.97;;;8.05;100.00
15308;BME280;7755;52.208;6.964;2023-02-02T15:38:54;101910.44;;;8.04;100.00
15308;BME280;7755;52.208;6.964;2023-02-02T15:43:03;101912.94;;;8.06;100.00
15308;BME280;7755;52.208;6.964;2023-02-02T15:47:13;101920.06;;;8.07;100.00
15308;BME280;7755;52.208;6.964;2023-02-02T15:51:17;101918.56;;;8.04;100.00
15308;BME280;7755;52.208;6.964;2023-02-02T15:55:24;101916.53;;;8.06;100.00
15308;BME280;7755;52.208;6.964;2023-02-02T15:59:38;101914.81;;;8.05;100.00
15308;BME280;7755;52.208;6.964;2023-02-02T16:03:47;101909.81;;;8.02;100.00
15308;BME280;7755;52.208;6.964;2023-02-02T16:07:51;101928.13;;;8.00;100.00
15308;BME280;7755;52.208;6.964;2023-02-02T16:12:12;101924.75;;;7.98;100.00
15308;BME280;7755;52.208;6.964;2023-02-02T16:16:21;101924.94;;;7.97;100.00
15308;BME280;7755;52.208;6.964;2023-02-02T16:20:26;101927.47;;;7.98;100.00
15308;BME280;7755;52.208;6.964;2023-02-02T16:24:32;101933.91;;;7.97;100.00
15308;BME280;7755;52.208;6.964;2023-02-02T16:28:36;101946.25;;;8.00;100.00
15308;BME280;7755;52.208;6.964;2023-02-02T16:32:39;101947.25;;;7.99;100.00
15308;BME280;7755;52.208;6.964;2023-02-02T16:37:03;101948.97;;;8.00;100.00
15308;BME280;7755;52.208;6.964;2023-02-02T16:41:08;101949.59;;;8.02;100.00
15308;BME280;7755;52.208;6.964;2023-02-02T16:45:32;101948.75;;;8.01;100.00
15308;BME280;7755;52.208;6.964;2023-02-02T16:49:36;101949.78;;;8.00;100.00
15308;BME280;7755;52.208;6.964;2023-02-02T16:53:41;101958.94;;;7.99;100.00
15308;BME280;7755;52.208;6.964;2023-02-02T16:57:47;101960.78;;;7.99;100.00
15308;BME280;7755;52.208;6.964;2023-02-02T17:01:52;101971.47;;;8.00;100.00
15308;BME280;7755;52.208;6.964;2023-02-02T17:05:57;101969.59;;;8.01;100.00
15308;BME280;7755;52.208;6.964;2023-02-02T17:10:19;101967.31;;;8.04;100.00
15308;BME280;7755;52.208;6.964;2023-02-02T17:14:31;101973.78;;;8.03;100.00
15308;BME280;7755;52.208;6.964;2023-02-02T17:18:35;101971.25;;;8.02;100.00
15308;BME280;7755;52.208;6.964;2023-02-02T17:22:40;101971.91;;;8.04;100.00
15308;BME280;7755;52.208;6.964;2023-02-02T17:26:44;101975.84;;;8.01;100.00
15308;BME280;7755;52.208;6.964;2023-02-02T17:30:52;101979.81;;;8.05;100.00
15308;BME280;7755;52.208;6.964;2023-02-02T17:34:58;101985.06;;;8.07;100.00
15308;BME280;7755;52.208;6.964;2023-02-02T17:39:00;101984.88;;;8.08;100.00
15308;BME280;7755;52.208;6.964;2023-02-02T17:43:07;101980.50;;;8.07;100.00
15308;BME280;7755;52.208;6.964;2023-02-02T17:47:12;101982.72;;;8.04;100.00
15308;BME280;7755;52.208;6.964;2023-02-02T17:51:15;101973.19;;;8.08;100.00
15308;BME280;7755;52.208;6.964;2023-02-02T17:55:19;101983.84;;;8.09;100.00
15308;BME280;7755;52.208;6.964;2023-02-02T17:59:24;101971.97;;;8.10;100.00
15308;BME280;7755;52.208;6.964;2023-02-02T18:03:28;101976.34;;;8.11;100.00
15308;BME280;7755;52.208;6.964;2023-02-02T18:07:35;101975.91;;;8.08;100.00
15308;BME280;7755;52.208;6.964;2023-02-02T18:11:38;101979.25;;;8.10;100.00
15308;BME280;7755;52.208;6.964;2023-02-02T18:15:45;101981.97;;;8.10;100.00
15308;BME280;7755;52.208;6.964;2023-02-02T18:19:48;101975.72;;;8.09;100.00
15308;BME280;7755;52.208;6.964;2023-02-02T18:23:51;101973.28;;;8.14;100.00
15308;BME280;7755;52.208;6.964;2023-02-02T18:27:54;101967.19;;;8.12;100.00
15308;BME280;7755;52.208;6.964;2023-02-02T18:31:59;101974.94;;;8.15;100.00
15308;BME280;7755;52.208;6.964;2023-02-02T18:36:05;101978.69;;;8.14;100.00
15308;BME280;7755;52.208;6.964;2023-02-02T18:40:10;101964.09;;;8.15;100.00
15308;BME280;7755;52.208;6.964;2023-02-02T18:44:13;101962.03;;;8.17;100.00
15308;BME280;7755;52.208;6.964;2023-02-02T18:48:17;101961.84;;;8.19;100.00
15308;BME280;7755;52.208;6.964;2023-02-02T18:52:20;101966.25;;;8.20;100.00
15308;BME280;7755;52.208;6.964;2023-02-02T18:56:23;101971.47;;;8.21;100.00
15308;BME280;7755;52.208;6.964;2023-02-02T19:00:25;101971.47;;;8.21;100.00
15308;BME280;7755;52.208;6.964;2023-02-02T19:04:30;101962.09;;;8.24;100.00
15308;BME280;7755;52.208;6.964;2023-02-02T19:08:33;101970.63;;;8.21;100.00
15308;BME280;7755;52.208;6.964;2023-02-02T19:12:35;101973.13;;;8.23;100.00
15308;BME280;7755;52.208;6.964;2023-02-02T19:16:41;101977.50;;;8.24;100.00
15308;BME280;7755;52.208;6.964;2023-02-02T19:20:47;101980.84;;;8.26;100.00
15308;BME280;7755;52.208;6.964;2023-02-02T19:24:50;101979.38;;;8.23;100.00
15308;BME280;7755;52.208;6.964;2023-02-02T19:28:55;101968.56;;;8.23;100.00
15308;BME280;7755;52.208;6.964;2023-02-02T19:33:00;101973.34;;;8.21;100.00
15308;BME280;7755;52.208;6.964;2023-02-02T19:37:21;101975.00;;;8.22;100.00
15308;BME280;7755;52.208;6.964;2023-02-02T19:41:25;101978.16;;;8.26;100.00
15308;BME280;7755;52.208;6.964;2023-02-02T19:45:30;101973.56;;;8.26;100.00
15308;BME280;7755;52.208;6.964;2023-02-02T19:49:35;101966.88;;;8.22;100.00
15308;BME280;7755;52.208;6.964;2023-02-02T19:53:39;101962.94;;;8.25;100.00
15308;BME280;7755;52.208;6.964;2023-02-02T19:57:42;101961.25;;;8.24;100.00
15308;BME280;7755;52.208;6.964;2023-02-02T20:01:45;101962.28;;;8.23;100.00
15308;BME280;7755;52.208;6.964;2023-02-02T20:05:51;101973.13;;;8.23;100.00
15308;BME280;7755;52.208;6.964;2023-02-02T20:09:59;101969.13;;;8.18;100.00
15308;BME280;7755;52.208;6.964;2023-02-02T20:14:25;101958.69;;;8.15;100.00
15308;BME280;7755;52.208;6.964;2023-02-02T20:18:38;101959.72;;;8.14;100.00
15308;BME280;7755;52.208;6.964;2023-02-02T20:22:42;101958.69;;;8.15;100.00
15308;BME280;7755;52.208;6.964;2023-02-02T20:26:47;101964.94;;;8.16;100.00
15308;BME280;7755;52.208;6.964;2023-02-02T20:30:50;101968.69;;;8.15;100.00
15308;BME280;7755;52.208;6.964;2023-02-02T20:34:54;101975.16;;;8.14;100.00
15308;BME280;7755;52.208;6.964;2023-02-02T20:38:59;101969.25;;;8.10;100.00
15308;BME280;7755;52.208;6.964;2023-02-02T20:43:12;101980.72;;;8.12;100.00
15308;BME280;7755;52.208;6.964;2023-02-02T20:47:16;101964.31;;;8.14;100.00
15308;BME280;7755;52.208;6.964;2023-02-02T20:51:19;101979.53;;;8.15;100.00
15308;BME280;7755;52.208;6.964;2023-02-02T20:55:22;101989.53;;;8.14;100.00
15308;BME280;7755;52.208;6.964;2023-02-02T20:59:27;101984.94;;;8.15;100.00
15308;BME280;7755;52.208;6.964;2023-02-02T21:03:30;101992.22;;;8.14;100.00
15308;BME280;7755;52.208;6.964;2023-02-02T21:07:33;101995.78;;;8.15;100.00
15308;BME280;7755;52.208;6.964;2023-02-02T21:11:36;101978.50;;;8.16;100.00
15308;BME280;7755;52.208;6.964;2023-02-02T21:15:41;101981.19;;;8.16;100.00
15308;BME280;7755;52.208;6.964;2023-02-02T21:19:43;101985.22;;;8.20;100.00
15308;BME280;7755;52.208;6.964;2023-02-02T21:23:47;101994.59;;;8.24;100.00
15308;BME280;7755;52.208;6.964;2023-02-02T21:27:51;101982.66;;;8.18;100.00
15308;BME280;7755;52.208;6.964;2023-02-02T21:31:57;101985.38;;;8.18;100.00
15308;BME280;7755;52.208;6.964;2023-02-02T21:36:18;101995.78;;;8.15;100.00
15308;BME280;7755;52.208;6.964;2023-02-02T21:40:25;101968.69;;;8.15;100.00
15308;BME280;7755;52.208;6.964;2023-02-02T21:44:31;101974.75;;;8.17;100.00
15308;BME280;7755;52.208;6.964;2023-02-02T21:48:35;101964.09;;;8.15;100.00
15308;BME280;7755;52.208;6.964;2023-02-02T21:52:40;101958.13;;;8.20;100.00
15308;BME280;7755;52.208;6.964;2023-02-02T21:56:43;101952.28;;;8.23;100.00
15308;BME280;7755;52.208;6.964;2023-02-02T22:00:46;101956.03;;;8.22;100.00